Time;durP1;ratioP1;P1;durP2;ratioP2;P2;SDS_P1;SDS_P2;PMS_P1;PMS_P2;Temp;Humidity;BMP_temperature;BMP_pressure;BME280_temperature;BME280_humidity;BME280_pressure;Samples;Min_cycle;Max_cycle;Signal;HPM_P1;HPM_P2
2021/09/18 00:01:33;;;;;;;4.17;1.70;;;13.50;99.90;;;;;;5067458;28;20214;-59
2021/09/18 00:03:59;;;;;;;4.63;2.20;;;13.50;99.90;;;;;;5052416;28;20194;-50
2021/09/18 00:06:26;;;;;;;3.17;2.03;;;13.50;99.90;;;;;;5064629;28;20218;-57
2021/09/18 00:08:52;;;;;;;3.33;1.93;;;13.50;99.90;;;;;;5070048;28;20904;-50
2021/09/18 00:11:19;;;;;;;2.57;1.80;;;13.50;99.90;;;;;;5059907;28;20207;-52
2021/09/18 00:13:46;;;;;;;2.47;1.77;;;13.50;99.90;;;;;;5063697;28;20885;-52
2021/09/18 00:16:14;;;;;;;4.23;2.17;;;13.50;99.90;;;;;;5064953;28;20230;-46
2021/09/18 00:18:40;;;;;;;2.70;2.50;;;13.60;99.90;;;;;;5051983;28;20205;-58
2021/09/18 00:21:07;;;;;;;2.63;1.83;;;13.60;99.90;;;;;;5069440;28;20206;-50
2021/09/18 00:23:34;;;;;;;3.67;2.13;;;13.60;99.90;;;;;;5067094;28;20194;-57
2021/09/18 00:26:00;;;;;;;4.47;2.17;;;13.60;99.90;;;;;;5072749;28;20218;-46
2021/09/18 00:28:27;;;;;;;4.27;2.53;;;13.60;99.90;;;;;;5069917;28;20660;-56
2021/09/18 00:30:54;;;;;;;2.90;2.60;;;13.60;99.90;;;;;;5061371;28;20205;-45
2021/09/18 00:33:22;;;;;;;5.63;2.97;;;13.60;99.90;;;;;;5067541;28;20194;-46
2021/09/18 00:35:48;;;;;;;2.63;2.37;;;13.60;99.90;;;;;;5045705;28;20198;-47
2021/09/18 00:38:15;;;;;;;3.53;2.63;;;13.60;99.90;;;;;;5075220;28;20217;-46
2021/09/18 00:40:42;;;;;;;4.40;2.60;;;13.60;99.90;;;;;;5061303;28;20202;-56
2021/09/18 00:43:10;;;;;;;3.53;2.97;;;13.60;99.90;;;;;;5059664;28;20195;-46
2021/09/18 00:45:37;;;;;;;3.00;2.70;;;13.60;99.90;;;;;;5061520;28;20230;-55
2021/09/18 00:48:05;;;;;;;3.37;2.87;;;13.60;99.90;;;;;;5056961;28;20314;-47
2021/09/18 00:50:32;;;;;;;3.27;2.67;;;13.60;99.90;;;;;;5048097;28;20202;-55
2021/09/18 00:53:00;;;;;;;3.97;2.80;;;13.60;99.90;;;;;;5066020;28;20219;-45
2021/09/18 00:55:28;;;;;;;3.23;2.90;;;13.60;99.90;;;;;;5064389;28;20206;-56
2021/09/18 00:57:54;;;;;;;3.20;2.90;;;13.60;99.90;;;;;;5057392;28;20230;-46
2021/09/18 01:00:21;;;;;;;3.57;3.10;;;13.60;99.90;;;;;;5058119;28;20198;-45
2021/09/18 01:02:48;;;;;;;4.73;3.27;;;13.60;99.90;;;;;;5064313;28;20214;-49
2021/09/18 01:05:14;;;;;;;4.77;3.10;;;13.60;99.90;;;;;;5072846;28;20198;-50
2021/09/18 01:07:43;;;;;;;4.87;3.97;;;13.60;99.90;;;;;;5046213;28;20222;-58
2021/09/18 01:10:11;;;;;;;3.97;3.30;;;13.60;99.90;;;;;;5071385;28;20580;-45
2021/09/18 01:12:59;;;;;;;3.90;3.50;;;13.70;99.90;;;;;;5064244;28;20205;-47
2021/09/18 01:15:27;;;;;;;4.10;3.50;;;13.70;99.90;;;;;;5057467;28;20950;-50
2021/09/18 01:17:55;;;;;;;4.20;3.77;;;13.70;99.90;;;;;;5074520;28;20234;-53
2021/09/18 01:20:22;;;;;;;5.63;3.67;;;13.70;99.90;;;;;;5061167;28;20236;-46
2021/09/18 01:22:51;;;;;;;4.40;3.57;;;13.70;99.90;;;;;;5048071;28;20207;-57
2021/09/18 01:25:19;;;;;;;4.60;3.90;;;13.70;99.90;;;;;;5066918;28;20731;-46
2021/09/18 01:27:47;;;;;;;5.20;4.20;;;13.70;99.90;;;;;;5082204;28;20225;-46
2021/09/18 01:30:17;;;;;;;5.07;4.53;;;13.70;99.90;;;;;;5049693;28;20205;-47
2021/09/18 01:32:44;;;;;;;4.27;3.87;;;13.70;99.90;;;;;;5058385;28;20203;-45
2021/09/18 01:35:11;;;;;;;4.47;4.10;;;13.70;99.90;;;;;;5066873;28;20841;-51
2021/09/18 01:37:38;;;;;;;4.20;3.90;;;13.70;99.90;;;;;;5054182;28;20222;-46
2021/09/18 01:40:06;;;;;;;5.30;4.80;;;13.70;99.90;;;;;;5059513;28;20194;-57
2021/09/18 01:42:34;;;;;;;5.30;4.30;;;13.80;99.90;;;;;;5056884;28;20206;-46
2021/09/18 01:45:01;;;;;;;5.47;4.23;;;13.80;99.90;;;;;;5058603;28;20209;-56
2021/09/18 01:47:42;;;;;;;4.67;4.27;;;13.80;99.90;;;;;;5062521;28;20206;-47
2021/09/18 01:50:20;;;;;;;4.50;4.10;;;13.80;99.90;;;;;;5054074;28;20220;-49
2021/09/18 01:52:48;;;;;;;5.40;4.00;;;13.80;99.90;;;;;;5049468;28;20668;-48
2021/09/18 01:55:15;;;;;;;4.90;4.50;;;13.80;99.90;;;;;;5054012;28;20218;-46
2021/09/18 01:57:44;;;;;;;4.53;4.13;;;13.80;99.90;;;;;;5074143;28;20222;-46
2021/09/18 02:00:12;;;;;;;5.93;4.20;;;13.80;99.90;;;;;;5068731;28;20202;-48
2021/09/18 02:02:39;;;;;;;5.67;4.57;;;13.80;99.90;;;;;;5071300;28;20201;-46
2021/09/18 02:05:07;;;;;;;5.30;4.80;;;13.70;99.90;;;;;;5063412;28;20834;-56
2021/09/18 02:07:34;;;;;;;4.63;4.23;;;13.70;99.90;;;;;;5067215;28;20309;-51
2021/09/18 02:10:00;;;;;;;6.83;4.40;;;13.70;99.90;;;;;;5049643;28;20217;-56
2021/09/18 02:12:27;;;;;;;6.13;5.07;;;13.70;99.90;;;;;;5074142;28;20197;-50
2021/09/18 02:14:55;;;;;;;5.83;5.03;;;13.70;99.90;;;;;;5069383;28;20733;-56
2021/09/18 02:17:21;;;;;;;6.30;5.70;;;13.80;99.90;;;;;;5060153;28;20226;-45
2021/09/18 02:19:48;;;;;;;6.63;5.40;;;13.80;99.90;;;;;;5070925;28;20558;-50
2021/09/18 02:22:15;;;;;;;6.37;5.30;;;13.80;99.90;;;;;;5067376;28;20194;-46
2021/09/18 02:24:42;;;;;;;6.17;5.57;;;13.70;99.90;;;;;;5059412;28;20214;-45
2021/09/18 02:27:08;;;;;;;5.90;5.20;;;13.70;99.90;;;;;;5062695;28;20218;-53
2021/09/18 02:29:35;;;;;;;5.83;5.33;;;13.70;99.90;;;;;;5070325;28;20200;-49
2021/09/18 02:32:04;;;;;;;7.77;5.93;;;13.70;99.90;;;;;;5058548;28;20233;-57
2021/09/18 02:34:31;;;;;;;6.23;5.23;;;13.70;99.90;;;;;;5070128;28;20194;-48
2021/09/18 02:36:57;;;;;;;8.37;5.60;;;13.70;99.90;;;;;;5084063;28;20222;-55
2021/09/18 02:39:24;;;;;;;6.73;5.27;;;13.70;99.90;;;;;;5064921;28;20222;-46
2021/09/18 02:41:51;;;;;;;5.83;5.30;;;13.70;99.90;;;;;;5065004;28;20202;-57
2021/09/18 02:44:17;;;;;;;6.90;5.93;;;13.70;99.90;;;;;;5071863;28;20197;-48
2021/09/18 02:46:44;;;;;;;7.57;5.77;;;13.70;99.90;;;;;;5066761;28;20226;-47
2021/09/18 02:49:12;;;;;;;8.57;5.50;;;13.80;99.90;;;;;;5074071;28;20197;-48
2021/09/18 02:51:38;;;;;;;6.00;5.40;;;13.80;99.90;;;;;;5073320;28;20548;-46
2021/09/18 02:54:05;;;;;;;6.03;5.43;;;13.80;99.90;;;;;;5082410;28;20244;-57
2021/09/18 02:56:31;;;;;;;7.27;5.10;;;13.80;99.90;;;;;;5052952;28;20214;-46
2021/09/18 02:58:58;;;;;;;11.30;5.50;;;13.80;99.90;;;;;;5058268;28;20233;-55
2021/09/18 03:01:25;;;;;;;5.40;4.90;;;13.80;99.90;;;;;;5065436;28;20310;-45
2021/09/18 03:03:52;;;;;;;7.27;5.23;;;13.80;99.90;;;;;;5061343;28;20216;-56
2021/09/18 03:06:19;;;;;;;7.20;4.83;;;13.80;99.90;;;;;;5063042;28;20749;-46
2021/09/18 03:08:46;;;;;;;6.87;5.10;;;13.80;99.90;;;;;;5063654;28;20203;-47
2021/09/18 03:11:13;;;;;;;6.40;5.20;;;13.90;99.90;;;;;;5052768;28;20210;-47
2021/09/18 03:13:39;;;;;;;5.50;4.93;;;13.80;99.90;;;;;;5069707;28;20198;-50
2021/09/18 03:16:07;;;;;;;7.10;5.00;;;13.90;99.90;;;;;;5062569;28;20625;-57
2021/09/18 03:18:34;;;;;;;6.00;4.93;;;13.80;99.90;;;;;;5060667;28;20575;-51
2021/09/18 03:21:01;;;;;;;5.47;4.90;;;13.90;99.90;;;;;;5069327;28;20210;-56
2021/09/18 03:23:28;;;;;;;5.43;4.93;;;13.90;99.90;;;;;;5079768;28;20190;-46
2021/09/18 03:25:55;;;;;;;5.63;5.13;;;13.90;99.90;;;;;;5069099;28;20344;-56
2021/09/18 03:28:22;;;;;;;6.83;5.77;;;13.90;99.90;;;;;;5042814;28;20206;-50
2021/09/18 03:30:49;;;;;;;7.93;5.17;;;13.90;99.90;;;;;;5080344;28;20667;-56
2021/09/18 03:33:15;;;;;;;5.37;4.80;;;13.90;99.90;;;;;;5069584;28;20210;-45
2021/09/18 03:35:42;;;;;;;5.43;4.93;;;13.90;99.90;;;;;;5073645;28;20209;-46
2021/09/18 03:38:09;;;;;;;5.27;4.77;;;13.90;99.90;;;;;;5063614;28;20215;-48
2021/09/18 03:40:37;;;;;;;6.53;5.27;;;13.90;99.90;;;;;;5069969;28;20218;-47
2021/09/18 03:43:04;;;;;;;4.87;4.47;;;13.90;99.90;;;;;;5054479;28;20191;-58
2021/09/18 03:45:31;;;;;;;5.00;4.40;;;13.90;99.90;;;;;;5064715;28;20272;-48
2021/09/18 03:47:57;;;;;;;5.53;4.63;;;13.90;99.90;;;;;;5070140;28;20211;-57
2021/09/18 03:50:25;;;;;;;6.07;4.90;;;13.90;99.90;;;;;;5059317;28;20205;-46
2021/09/18 03:52:51;;;;;;;7.13;5.20;;;13.90;99.90;;;;;;5064228;28;20198;-57
2021/09/18 03:55:18;;;;;;;5.13;4.63;;;13.90;99.90;;;;;;5058891;28;20198;-46
2021/09/18 03:57:46;;;;;;;5.43;4.73;;;14.00;99.90;;;;;;5064875;28;20419;-46
2021/09/18 04:00:13;;;;;;;7.43;4.40;;;13.90;99.90;;;;;;5046084;28;20460;-47
2021/09/18 04:02:40;;;;;;;6.17;4.83;;;14.00;99.90;;;;;;5064848;28;20395;-45
2021/09/18 04:05:07;;;;;;;5.13;4.63;;;14.00;99.90;;;;;;5055464;28;20207;-58
2021/09/18 04:07:34;;;;;;;7.07;5.33;;;14.00;99.90;;;;;;5060679;28;20691;-45
2021/09/18 04:10:00;;;;;;;5.60;5.00;;;14.00;99.90;;;;;;5062824;28;20249;-58
2021/09/18 04:12:27;;;;;;;6.47;4.67;;;14.00;99.90;;;;;;5065174;28;20226;-50
2021/09/18 04:14:55;;;;;;;5.83;4.80;;;14.00;99.90;;;;;;5057431;28;20209;-55
2021/09/18 04:17:21;;;;;;;5.93;5.40;;;14.00;99.90;;;;;;5062608;28;20759;-49
2021/09/18 04:19:48;;;;;;;5.53;5.03;;;14.00;99.90;;;;;;5078104;28;20214;-53
2021/09/18 04:22:15;;;;;;;7.00;5.27;;;14.00;99.90;;;;;;5065440;28;20205;-51
2021/09/18 04:24:41;;;;;;;5.23;4.80;;;14.00;99.90;;;;;;5064770;28;20202;-47
2021/09/18 04:27:08;;;;;;;6.63;4.57;;;14.00;99.90;;;;;;5054852;28;20629;-59
2021/09/18 04:29:34;;;;;;;7.07;5.17;;;14.00;99.90;;;;;;5066984;28;20213;-47
2021/09/18 04:32:03;;;;;;;6.67;5.00;;;14.00;99.90;;;;;;5056890;28;20217;-56
2021/09/18 04:34:29;;;;;;;6.93;4.80;;;14.00;99.90;;;;;;5057420;28;20199;-46
2021/09/18 04:36:56;;;;;;;6.67;5.27;;;14.00;99.90;;;;;;5078852;28;20217;-58
2021/09/18 04:39:23;;;;;;;5.70;5.23;;;14.10;99.90;;;;;;5056636;28;20989;-48
2021/09/18 04:41:50;;;;;;;5.50;5.00;;;14.10;99.90;;;;;;5058195;28;20664;-57
2021/09/18 04:44:17;;;;;;;5.70;5.20;;;14.10;99.90;;;;;;5059117;28;20198;-48
2021/09/18 04:46:44;;;;;;;6.57;4.77;;;14.10;99.90;;;;;;5052658;28;20218;-51
2021/09/18 04:49:12;;;;;;;6.93;6.20;;;14.10;99.90;;;;;;5064448;28;20187;-50
2021/09/18 04:51:39;;;;;;;7.43;6.00;;;14.10;99.90;;;;;;5070435;28;20593;-51
2021/09/18 04:54:06;;;;;;;5.87;4.97;;;14.10;99.90;;;;;;5071642;28;20202;-56
2021/09/18 04:56:32;;;;;;;6.70;5.83;;;14.10;99.90;;;;;;5078815;28;20210;-52
2021/09/18 04:59:00;;;;;;;6.97;5.80;;;14.10;99.90;;;;;;5067355;28;20224;-60
2021/09/18 05:01:27;;;;;;;8.47;5.83;;;14.20;99.90;;;;;;5056932;28;20236;-50
2021/09/18 05:03:53;;;;;;;7.50;5.37;;;14.20;99.90;;;;;;5069559;28;20205;-56
2021/09/18 05:06:21;;;;;;;5.27;4.77;;;14.20;99.90;;;;;;5078418;28;20217;-47
2021/09/18 05:08:48;;;;;;;6.50;5.37;;;14.20;99.90;;;;;;5059394;28;20191;-52
2021/09/18 05:11:15;;;;;;;6.00;5.10;;;14.20;99.90;;;;;;5059925;28;20862;-48
2021/09/18 05:13:41;;;;;;;5.17;4.63;;;14.20;99.90;;;;;;5069857;28;20390;-52
2021/09/18 05:16:08;;;;;;;6.17;5.17;;;14.20;99.90;;;;;;5048284;28;20228;-58
2021/09/18 05:18:34;;;;;;;5.03;4.50;;;14.20;99.90;;;;;;5067605;28;20580;-47
2021/09/18 05:21:01;;;;;;;5.43;4.90;;;14.20;99.90;;;;;;5065384;28;20194;-59
2021/09/18 05:23:29;;;;;;;5.13;4.63;;;14.20;99.90;;;;;;5069820;28;20201;-50
2021/09/18 05:25:56;;;;;;;4.47;4.07;;;14.30;99.90;;;;;;5057781;28;20601;-56
2021/09/18 05:28:22;;;;;;;8.03;4.60;;;14.30;99.90;;;;;;5059296;28;20198;-47
2021/09/18 05:30:49;;;;;;;5.00;4.60;;;14.30;99.90;;;;;;5062474;28;20544;-56
2021/09/18 05:33:15;;;;;;;7.37;4.80;;;14.30;99.90;;;;;;5046450;28;20366;-53
2021/09/18 05:35:42;;;;;;;5.67;4.77;;;14.30;99.90;;;;;;5065077;28;20206;-47
2021/09/18 05:38:09;;;;;;;4.80;4.40;;;14.30;99.90;;;;;;5058267;28;20199;-50
2021/09/18 05:40:37;;;;;;;5.33;4.17;;;14.30;99.90;;;;;;5058079;28;20221;-57
2021/09/18 05:43:03;;;;;;;5.33;4.87;;;14.30;99.90;;;;;;5051165;28;20203;-53
2021/09/18 05:45:30;;;;;;;5.07;4.23;;;14.40;99.90;;;;;;5057460;28;20557;-51
2021/09/18 05:47:56;;;;;;;4.90;4.50;;;14.40;99.90;;;;;;5043357;28;20233;-49
2021/09/18 05:50:24;;;;;;;4.50;4.10;;;14.40;99.90;;;;;;5066936;28;20201;-47
2021/09/18 05:52:50;;;;;;;4.87;4.47;;;14.40;99.90;;;;;;5055289;28;20212;-58
2021/09/18 05:55:17;;;;;;;5.27;4.73;;;14.40;99.90;;;;;;5063797;28;20205;-48
2021/09/18 05:57:45;;;;;;;5.53;4.70;;;14.40;99.90;;;;;;5055364;28;20229;-60
2021/09/18 06:00:12;;;;;;;4.40;4.00;;;14.40;99.90;;;;;;5063429;28;20210;-49
2021/09/18 06:02:41;;;;;;;7.33;5.00;;;14.40;99.90;;;;;;5070593;28;20540;-57
2021/09/18 06:05:09;;;;;;;5.20;4.40;;;14.40;99.90;;;;;;5046481;28;20210;-50
2021/09/18 06:07:35;;;;;;;4.93;4.43;;;14.40;99.90;;;;;;5068641;28;20210;-55
2021/09/18 06:10:02;;;;;;;7.50;4.73;;;14.40;99.90;;;;;;5066171;28;20194;-48
2021/09/18 06:12:28;;;;;;;5.37;4.50;;;14.40;99.90;;;;;;5061277;28;20194;-53
2021/09/18 06:14:56;;;;;;;4.83;4.33;;;14.40;99.90;;;;;;5049640;28;20198;-48
2021/09/18 06:17:23;;;;;;;5.20;4.67;;;14.40;99.90;;;;;;5061267;28;20221;-47
2021/09/18 06:19:50;;;;;;;4.77;4.23;;;14.40;99.90;;;;;;5045890;28;20580;-60
2021/09/18 06:22:16;;;;;;;6.03;4.90;;;14.40;99.90;;;;;;5064286;28;20207;-52
2021/09/18 06:24:44;;;;;;;5.30;4.80;;;14.40;99.90;;;;;;5062703;28;20217;-57
2021/09/18 06:27:11;;;;;;;5.67;5.13;;;14.40;99.90;;;;;;5069734;28;20207;-50
2021/09/18 06:29:38;;;;;;;6.13;5.33;;;14.40;99.90;;;;;;5054389;28;20557;-56
2021/09/18 06:32:08;;;;;;;8.30;4.43;;;14.50;99.90;;;;;;5049123;28;20581;-50
2021/09/18 06:34:35;;;;;;;5.60;4.87;;;14.50;99.90;;;;;;5061193;28;20236;-56
2021/09/18 06:37:02;;;;;;;4.53;4.13;;;14.50;99.90;;;;;;5044760;28;21690;-58
2021/09/18 06:39:28;;;;;;;4.70;4.30;;;14.50;99.90;;;;;;5062434;28;20217;-51
2021/09/18 06:41:55;;;;;;;4.37;4.07;;;14.60;99.90;;;;;;5052736;28;20229;-50
2021/09/18 06:44:21;;;;;;;4.17;3.80;;;14.60;99.90;;;;;;5049500;28;20187;-53
2021/09/18 06:46:48;;;;;;;4.03;3.73;;;14.70;99.90;;;;;;5063575;28;20222;-48
2021/09/18 06:49:16;;;;;;;4.00;3.67;;;14.80;99.90;;;;;;5070370;28;20612;-58
2021/09/18 06:51:42;;;;;;;4.57;4.17;;;14.80;99.90;;;;;;5065425;28;20209;-47
2021/09/18 06:54:09;;;;;;;3.57;3.07;;;14.80;99.90;;;;;;5078931;28;20537;-56
2021/09/18 06:56:36;;;;;;;5.90;3.70;;;14.90;99.90;;;;;;5084135;28;20314;-49
2021/09/18 06:59:02;;;;;;;3.37;3.03;;;14.90;99.90;;;;;;5084282;28;20225;-58
2021/09/18 07:01:29;;;;;;;3.10;2.70;;;14.90;99.90;;;;;;5051507;28;20194;-49
2021/09/18 07:03:56;;;;;;;2.63;2.43;;;15.00;99.90;;;;;;5075669;28;20201;-51
2021/09/18 07:06:24;;;;;;;2.60;2.10;;;15.00;99.90;;;;;;5056348;28;20222;-47
2021/09/18 07:08:53;;;;;;;2.63;2.40;;;15.00;99.90;;;;;;5072708;28;20202;-49
2021/09/18 07:11:20;;;;;;;2.20;2.07;;;15.10;99.90;;;;;;5055113;28;20211;-51
2021/09/18 07:13:46;;;;;;;2.33;2.10;;;15.10;99.90;;;;;;5059890;28;20211;-53
2021/09/18 07:16:13;;;;;;;2.10;1.90;;;15.20;99.90;;;;;;5052035;28;20226;-58
2021/09/18 07:18:39;;;;;;;2.30;2.10;;;15.20;99.90;;;;;;5068049;28;20654;-56
2021/09/18 07:21:06;;;;;;;4.63;2.00;;;15.20;99.90;;;;;;5071045;28;20214;-58
2021/09/18 07:23:34;;;;;;;2.93;2.20;;;15.30;99.90;;;;;;5046040;28;20210;-48
2021/09/18 07:26:01;;;;;;;2.63;1.73;;;15.30;99.90;;;;;;5077303;28;20230;-57
2021/09/18 07:28:29;;;;;;;2.00;1.47;;;15.30;99.90;;;;;;5058898;28;20186;-46
2021/09/18 07:30:55;;;;;;;2.60;2.40;;;15.40;99.90;;;;;;5058057;28;20211;-47
2021/09/18 07:33:22;;;;;;;3.27;1.60;;;15.40;99.90;;;;;;5057118;28;20226;-50
2021/09/18 07:35:48;;;;;;;1.70;1.60;;;15.50;99.90;;;;;;5057493;28;20855;-47
2021/09/18 07:38:15;;;;;;;3.17;1.90;;;15.50;99.90;;;;;;5049599;28;20199;-58
2021/09/18 07:40:43;;;;;;;3.73;1.60;;;15.60;99.90;;;;;;5071778;28;20225;-47
2021/09/18 07:43:10;;;;;;;2.17;1.53;;;15.60;99.90;;;;;;5058300;28;20249;-57
2021/09/18 07:45:36;;;;;;;2.70;1.60;;;15.60;99.90;;;;;;5065579;28;20175;-48
2021/09/18 07:48:03;;;;;;;3.60;1.33;;;15.70;99.90;;;;;;5064471;28;20210;-54
2021/09/18 07:50:30;;;;;;;2.27;1.33;;;15.80;99.90;;;;;;5061871;28;20194;-46
2021/09/18 07:52:57;;;;;;;1.97;1.83;;;15.80;99.90;;;;;;5050529;28;20214;-46
2021/09/18 07:55:26;;;;;;;1.93;1.67;;;15.90;99.90;;;;;;5060963;28;20222;-48
2021/09/18 07:57:54;;;;;;;1.97;1.40;;;15.90;99.90;;;;;;5064941;28;20232;-46
2021/09/18 08:00:21;;;;;;;1.77;1.30;;;16.00;99.90;;;;;;5058926;28;20951;-46
2021/09/18 08:02:47;;;;;;;1.63;1.53;;;16.00;99.90;;;;;;5072501;28;20202;-45
2021/09/18 08:05:14;;;;;;;1.53;1.30;;;16.10;99.90;;;;;;5065156;28;20187;-46
2021/09/18 08:07:41;;;;;;;1.20;1.10;;;16.20;99.90;;;;;;5060733;28;20215;-46
2021/09/18 08:10:10;;;;;;;1.30;1.20;;;16.20;99.90;;;;;;5036012;28;20194;-46
2021/09/18 08:12:37;;;;;;;1.40;1.03;;;16.30;99.90;;;;;;5066846;28;20333;-48
2021/09/18 08:15:06;;;;;;;1.40;1.20;;;16.30;99.90;;;;;;5062536;28;20194;-46
2021/09/18 08:17:33;;;;;;;1.40;1.30;;;16.40;99.90;;;;;;5083319;28;20728;-48
2021/09/18 08:19:59;;;;;;;1.00;0.97;;;16.40;99.90;;;;;;5074372;28;20214;-58
2021/09/18 08:22:26;;;;;;;2.53;1.03;;;16.50;99.90;;;;;;5069951;28;20206;-46
2021/09/18 08:24:54;;;;;;;2.80;1.30;;;16.60;99.90;;;;;;5055432;28;20758;-56
2021/09/18 08:27:21;;;;;;;1.13;1.03;;;16.60;99.90;;;;;;5062441;28;20250;-49
2021/09/18 08:29:47;;;;;;;1.37;0.77;;;16.70;99.90;;;;;;5063453;28;20187;-56
2021/09/18 08:32:15;;;;;;;0.70;0.70;;;16.70;99.90;;;;;;5056502;28;20206;-47
2021/09/18 08:34:42;;;;;;;2.73;1.40;;;16.70;99.90;;;;;;5064722;28;20198;-46
2021/09/18 08:37:09;;;;;;;1.33;1.07;;;16.60;99.90;;;;;;5060425;28;20225;-49
2021/09/18 08:39:38;;;;;;;0.80;0.80;;;16.70;99.90;;;;;;5040272;28;20234;-57
2021/09/18 08:42:05;;;;;;;1.07;0.70;;;16.70;99.90;;;;;;5065260;28;20187;-55
2021/09/18 08:44:32;;;;;;;1.40;0.80;;;16.70;99.90;;;;;;5056553;28;20202;-51
2021/09/18 08:47:00;;;;;;;1.87;0.60;;;16.70;99.90;;;;;;5050846;28;20226;-52
2021/09/18 08:49:29;;;;;;;1.97;0.90;;;16.70;99.90;;;;;;5059906;28;20218;-54
2021/09/18 08:51:56;;;;;;;1.27;0.70;;;16.70;99.90;;;;;;5071569;28;20209;-50
2021/09/18 08:54:23;;;;;;;0.90;0.90;;;16.80;99.90;;;;;;5063429;28;21553;-57
2021/09/18 08:56:49;;;;;;;4.57;1.33;;;16.80;99.90;;;;;;5057010;28;20238;-49
2021/09/18 08:59:16;;;;;;;2.83;0.77;;;16.90;99.90;;;;;;5051347;28;20210;-54
2021/09/18 09:01:42;;;;;;;1.37;0.80;;;16.80;99.90;;;;;;5059216;28;20207;-52
2021/09/18 09:04:10;;;;;;;0.90;0.90;;;16.70;99.90;;;;;;5055106;28;20190;-53
2021/09/18 09:06:42;;;;;;;1.40;0.80;;;16.60;99.90;;;;;;5066993;28;20229;-51
2021/09/18 09:09:09;;;;;;;0.87;0.60;;;16.50;99.90;;;;;;5048575;28;22116;-51
2021/09/18 09:11:36;;;;;;;1.57;0.70;;;16.40;99.90;;;;;;5053929;28;20202;-51
2021/09/18 09:14:05;;;;;;;1.70;0.70;;;16.40;99.90;;;;;;5055722;28;20279;-55
2021/09/18 09:16:33;;;;;;;0.87;0.80;;;16.50;99.90;;;;;;5053851;28;20223;-49
2021/09/18 09:19:13;;;;;;;1.37;0.70;;;16.60;99.90;;;;;;5064768;28;20205;-54
2021/09/18 09:21:48;;;;;;;0.97;0.60;;;16.70;99.90;;;;;;5058524;28;20249;-54
2021/09/18 09:24:17;;;;;;;1.03;0.70;;;16.70;99.90;;;;;;5063284;28;20294;-57
2021/09/18 09:27:04;;;;;;;0.50;0.50;;;16.70;99.90;;;;;;5052726;28;20870;-54
2021/09/18 09:29:43;;;;;;;0.57;0.50;;;16.70;99.90;;;;;;5055287;28;20209;-53
2021/09/18 09:32:30;;;;;;;0.87;0.60;;;16.80;99.90;;;;;;5056354;28;20198;-57
2021/09/18 09:34:59;;;;;;;1.90;1.00;;;16.80;99.90;;;;;;5058640;28;20199;-55
2021/09/18 09:37:27;;;;;;;1.37;0.90;;;16.80;99.90;;;;;;5065603;28;20222;-50
2021/09/18 09:39:55;;;;;;;1.00;0.70;;;16.80;99.90;;;;;;5051335;28;22263;-50
2021/09/18 09:42:27;;;;;;;2.30;1.30;;;16.90;99.90;;;;;;5056260;28;20187;-54
2021/09/18 09:44:54;;;;;;;0.90;0.80;;;17.00;99.90;;;;;;5069470;28;20291;-52
2021/09/18 09:47:23;;;;;;;0.93;0.70;;;17.10;99.90;;;;;;5059806;28;21023;-53
2021/09/18 09:49:52;;;;;;;1.90;0.87;;;17.30;99.90;;;;;;5067035;28;20198;-58
2021/09/18 09:52:25;;;;;;;0.60;0.60;;;17.30;99.90;;;;;;5058355;28;20264;-52
2021/09/18 09:54:55;;;;;;;0.60;0.60;;;17.40;99.90;;;;;;5057300;28;20209;-51
2021/09/18 09:57:22;;;;;;;1.10;0.80;;;17.40;99.90;;;;;;5057915;28;20838;-52
2021/09/18 09:59:49;;;;;;;1.17;0.90;;;17.40;99.90;;;;;;5068319;28;20229;-54
2021/09/18 10:02:16;;;;;;;0.70;0.70;;;17.40;99.90;;;;;;5055846;28;20198;-54
2021/09/18 10:04:43;;;;;;;0.90;0.70;;;17.30;99.90;;;;;;5073751;28;20218;-59
2021/09/18 10:07:11;;;;;;;2.90;0.83;;;17.30;99.90;;;;;;5060353;28;20219;-49
2021/09/18 10:09:38;;;;;;;1.13;0.70;;;17.20;99.90;;;;;;5060823;28;20676;-56
2021/09/18 10:12:07;;;;;;;1.67;0.80;;;17.20;99.90;;;;;;5049096;28;20206;-51
2021/09/18 10:14:35;;;;;;;1.37;0.50;;;17.20;99.90;;;;;;5072436;28;20209;-55
2021/09/18 10:17:03;;;;;;;1.20;1.10;;;17.20;99.90;;;;;;5068375;28;20218;-49
2021/09/18 10:19:55;;;;;;;1.40;0.80;;;17.10;99.90;;;;;;5063981;28;20195;-51
2021/09/18 10:25:18;;;;;;;1.33;1.00;;;16.80;99.90;;;;;;5068752;28;20205;-50
2021/09/18 10:28:00;;;;;;;2.30;1.03;;;16.80;99.90;;;;;;5059991;28;20766;-57
2021/09/18 10:30:29;;;;;;;1.57;1.00;;;16.80;99.90;;;;;;5070747;28;20186;-56
2021/09/18 10:32:56;;;;;;;2.90;1.07;;;16.70;99.90;;;;;;5075918;28;20201;-52
2021/09/18 10:35:23;;;;;;;1.57;1.37;;;16.70;99.90;;;;;;5061529;28;20195;-58
2021/09/18 10:37:50;;;;;;;0.93;0.90;;;16.70;99.90;;;;;;5067145;28;20214;-52
2021/09/18 10:40:17;;;;;;;1.20;1.10;;;16.70;99.90;;;;;;5071010;28;20210;-57
2021/09/18 10:42:47;;;;;;;1.50;1.30;;;16.70;99.90;;;;;;5075607;28;20659;-58
2021/09/18 10:45:17;;;;;;;2.67;1.10;;;16.70;99.90;;;;;;5055377;28;20208;-55
2021/09/18 10:47:47;;;;;;;1.67;1.20;;;16.80;99.90;;;;;;5083677;28;20241;-54
2021/09/18 10:50:39;;;;;;;2.00;1.30;;;16.80;99.90;;;;;;5074487;28;20800;-52
2021/09/18 10:53:10;;;;;;;1.83;1.03;;;16.80;99.90;;;;;;5063135;28;20226;-53
2021/09/18 10:55:57;;;;;;;1.20;1.10;;;16.80;99.90;;;;;;5076600;28;20195;-58
2021/09/18 10:58:25;;;;;;;1.33;1.20;;;16.90;99.90;;;;;;5064224;28;20190;-54
2021/09/18 11:00:56;;;;;;;2.97;1.53;;;16.90;99.90;;;;;;5054546;28;20218;-53
2021/09/18 11:03:37;;;;;;;1.87;1.20;;;16.90;99.90;;;;;;5068593;28;20787;-56
2021/09/18 11:06:04;;;;;;;1.33;1.23;;;16.90;99.90;;;;;;5064032;28;20940;-52
2021/09/18 11:08:38;;;;;;;2.67;1.00;;;16.90;99.90;;;;;;5078864;28;20191;-58
2021/09/18 11:11:09;;;;;;;1.33;1.00;;;17.00;99.90;;;;;;5060873;28;20236;-53
2021/09/18 11:13:38;;;;;;;1.20;1.10;;;17.00;99.90;;;;;;5070219;28;20198;-58
2021/09/18 11:16:22;;;;;;;3.90;1.07;;;17.00;99.90;;;;;;5049985;28;20227;-56
2021/09/18 11:18:57;;;;;;;2.00;1.40;;;17.00;99.90;;;;;;5072814;28;20206;-55
2021/09/18 11:21:26;;;;;;;1.57;1.00;;;17.00;99.90;;;;;;5066623;28;20218;-56
2021/09/18 11:23:54;;;;;;;1.23;0.93;;;17.00;99.90;;;;;;5070018;28;20207;-53
2021/09/18 11:26:45;;;;;;;2.53;1.00;;;17.00;99.90;;;;;;5080860;28;20214;-52
2021/09/18 11:29:21;;;;;;;1.63;1.30;;;17.10;99.90;;;;;;5066381;28;20899;-56
2021/09/18 11:32:05;;;;;;;1.17;0.97;;;17.10;99.90;;;;;;5055385;28;20213;-54
2021/09/18 11:34:35;;;;;;;1.80;1.10;;;17.00;99.90;;;;;;5072718;28;20664;-55
2021/09/18 11:37:04;;;;;;;1.83;0.90;;;17.00;99.90;;;;;;5065659;28;20229;-53
2021/09/18 11:39:52;;;;;;;3.90;1.00;;;17.00;99.90;;;;;;5074240;28;20211;-58
2021/09/18 11:42:24;;;;;;;2.37;1.23;;;17.00;99.90;;;;;;5075448;28;20202;-56
2021/09/18 11:44:53;;;;;;;1.20;0.90;;;17.00;99.90;;;;;;5065198;28;20264;-53
2021/09/18 11:47:30;;;;;;;1.93;1.10;;;17.00;99.90;;;;;;5057570;28;20222;-45
2021/09/18 11:49:57;;;;;;;2.07;1.23;;;17.10;99.90;;;;;;5061473;28;20195;-45
2021/09/18 11:52:35;;;;;;;1.23;1.13;;;17.10;99.90;;;;;;5062976;28;20205;-47
2021/09/18 11:55:03;;;;;;;1.47;1.10;;;17.20;99.90;;;;;;5069144;28;20212;-54
2021/09/18 11:57:30;;;;;;;2.30;1.13;;;17.20;99.90;;;;;;5076175;28;20225;-43
2021/09/18 12:00:11;;;;;;;2.20;1.20;;;17.20;99.90;;;;;;5070335;28;20796;-48
2021/09/18 12:02:39;;;;;;;2.67;1.10;;;17.30;99.90;;;;;;5050290;28;20211;-43
2021/09/18 12:05:06;;;;;;;3.13;1.40;;;17.30;99.90;;;;;;5055489;28;20198;-48
2021/09/18 12:07:33;;;;;;;1.40;1.30;;;17.40;99.90;;;;;;5068786;28;20223;-46
2021/09/18 12:09:59;;;;;;;1.50;0.90;;;17.40;99.90;;;;;;5061224;28;20205;-48
2021/09/18 12:12:28;;;;;;;1.83;1.00;;;17.40;99.90;;;;;;5059735;28;20198;-45
2021/09/18 12:14:55;;;;;;;1.30;1.00;;;17.50;99.90;;;;;;5066446;28;20194;-44
2021/09/18 12:17:22;;;;;;;2.43;1.07;;;17.60;99.90;;;;;;5047308;28;20254;-47
2021/09/18 12:19:51;;;;;;;2.33;1.03;;;17.60;99.90;;;;;;5071252;28;20205;-54
2021/09/18 12:22:18;;;;;;;2.87;0.90;;;17.70;99.90;;;;;;5072720;28;20234;-50
2021/09/18 12:24:48;;;;;;;2.53;1.07;;;17.80;99.90;;;;;;5061214;28;20209;-53
2021/09/18 12:27:26;;;;;;;3.23;1.10;;;17.80;99.90;;;;;;5064031;28;20214;-49
2021/09/18 12:29:59;;;;;;;1.70;0.90;;;17.80;99.90;;;;;;5073513;28;20209;-48
2021/09/18 12:32:26;;;;;;;1.53;1.23;;;17.70;99.90;;;;;;5063335;28;20281;-47
2021/09/18 12:34:57;;;;;;;2.97;1.10;;;17.70;99.90;;;;;;5051382;28;20198;-53
2021/09/18 12:37:28;;;;;;;3.20;1.17;;;17.70;99.90;;;;;;5062970;28;20246;-49
2021/09/18 12:39:54;;;;;;;1.10;0.97;;;17.70;99.90;;;;;;5071531;28;20214;-52
2021/09/18 12:42:21;;;;;;;1.20;1.10;;;17.70;99.90;;;;;;5073363;28;20218;-52
2021/09/18 12:44:48;;;;;;;1.90;1.00;;;17.70;99.90;;;;;;5060464;28;20198;-50
2021/09/18 12:47:24;;;;;;;2.30;0.90;;;17.70;99.90;;;;;;5064255;28;20272;-54
2021/09/18 12:49:51;;;;;;;1.60;0.97;;;17.70;99.90;;;;;;5053997;28;20202;-52
2021/09/18 12:52:31;;;;;;;3.20;1.27;;;17.70;99.90;;;;;;5063502;28;20197;-53
2021/09/18 12:55:03;;;;;;;1.20;1.07;;;17.80;99.90;;;;;;5056808;28;20214;-55
2021/09/18 12:57:32;;;;;;;3.47;1.00;;;17.80;99.90;;;;;;5070150;28;20218;-47